Time;durP1;ratioP1;P1;durP2;ratioP2;P2;SDS_P1;SDS_P2;PMS_P1;PMS_P2;Temp;Humidity;BMP_temperature;BMP_pressure;BME280_temperature;BME280_humidity;BME280_pressure;Samples;Min_cycle;Max_cycle;Signal;HPM_P1;HPM_P2
2023/03/15 00:00:11;;;;;;;12.18;2.83;;;1.80;99.90;;;;;;5062926;28;20021;-75
2023/03/15 00:02:38;;;;;;;13.30;3.00;;;1.80;99.90;;;;;;5062873;28;20115;-74
2023/03/15 00:05:04;;;;;;;13.10;3.25;;;1.80;99.90;;;;;;5060323;28;20054;-73
2023/03/15 00:07:30;;;;;;;19.02;3.90;;;1.80;99.90;;;;;;5062449;28;20033;-75
2023/03/15 00:09:56;;;;;;;17.75;3.88;;;1.90;99.90;;;;;;5060971;28;20047;-75
2023/03/15 00:12:22;;;;;;;18.63;3.72;;;1.90;99.90;;;;;;5060651;28;20029;-75
2023/03/15 00:14:49;;;;;;;16.60;4.03;;;1.90;99.90;;;;;;5060984;28;20078;-76
2023/03/15 00:17:14;;;;;;;12.57;3.20;;;1.90;99.90;;;;;;5062606;28;20021;-76
2023/03/15 00:19:40;;;;;;;13.75;3.38;;;1.90;99.90;;;;;;5062383;28;20035;-75
2023/03/15 00:22:06;;;;;;;13.02;3.85;;;1.90;99.90;;;;;;5062073;28;20021;-75
2023/03/15 00:24:31;;;;;;;16.02;3.63;;;1.90;99.90;;;;;;5062177;28;20049;-78
2023/03/15 00:26:57;;;;;;;12.45;2.75;;;2.00;99.90;;;;;;5062178;28;20087;-75
2023/03/15 00:29:22;;;;;;;16.92;3.42;;;2.00;99.90;;;;;;5062169;28;20040;-76
2023/03/15 00:31:50;;;;;;;9.95;2.80;;;2.00;99.90;;;;;;5060002;28;20040;-76
2023/03/15 00:34:17;;;;;;;15.85;3.30;;;2.10;99.90;;;;;;5062545;28;20086;-77
2023/03/15 00:36:43;;;;;;;9.73;2.92;;;2.00;99.90;;;;;;5061772;28;20397;-76
2023/03/15 00:39:10;;;;;;;17.02;3.88;;;2.00;99.90;;;;;;5060305;28;20032;-75
2023/03/15 00:41:35;;;;;;;16.50;4.45;;;2.10;99.90;;;;;;5061992;28;20049;-74
2023/03/15 00:44:03;;;;;;;18.48;4.00;;;2.10;99.90;;;;;;5059529;28;20029;-78
2023/03/15 00:46:28;;;;;;;19.73;3.53;;;2.10;99.90;;;;;;5060371;28;20048;-76
2023/03/15 00:48:54;;;;;;;13.00;3.10;;;2.20;99.90;;;;;;5061035;28;20035;-76
2023/03/15 00:51:22;;;;;;;18.60;3.58;;;2.20;99.90;;;;;;5060436;28;20074;-76
2023/03/15 00:53:49;;;;;;;15.18;3.20;;;2.20;99.90;;;;;;5059988;28;20052;-77
2023/03/15 00:56:26;;;;;;;21.38;3.85;;;2.10;99.90;;;;;;5060970;28;20122;-77
2023/03/15 00:58:52;;;;;;;21.77;3.58;;;2.10;99.90;;;;;;5060155;28;20425;-78
2023/03/15 01:01:21;;;;;;;18.50;4.00;;;2.10;99.90;;;;;;5060589;28;20032;-79
2023/03/15 01:03:47;;;;;;;11.98;3.40;;;2.10;99.90;;;;;;5060117;28;20036;-78
2023/03/15 01:06:16;;;;;;;22.80;3.35;;;2.10;99.90;;;;;;5059887;28;20033;-78
2023/03/15 01:08:42;;;;;;;12.43;3.63;;;2.10;99.90;;;;;;5059053;28;20029;-77
2023/03/15 01:11:14;;;;;;;19.05;3.22;;;2.10;99.90;;;;;;5059429;28;20029;-78
2023/03/15 01:13:40;;;;;;;12.82;3.28;;;2.20;99.90;;;;;;5060110;28;20024;-78
2023/03/15 01:16:08;;;;;;;16.13;3.42;;;2.20;99.90;;;;;;5060160;28;20021;-77
2023/03/15 01:18:33;;;;;;;9.05;3.13;;;2.20;99.90;;;;;;5059492;28;20033;-80
2023/03/15 01:21:00;;;;;;;16.33;3.30;;;2.20;99.90;;;;;;5061166;28;20044;-81
2023/03/15 01:23:25;;;;;;;13.70;3.13;;;2.20;99.90;;;;;;5060016;28;20025;-79
2023/03/15 01:25:52;;;;;;;13.13;2.95;;;2.20;99.90;;;;;;5059516;28;20166;-80
2023/03/15 01:28:17;;;;;;;15.45;3.22;;;2.10;99.90;;;;;;5060371;28;20029;-80
2023/03/15 01:30:52;;;;;;;16.80;3.33;;;2.10;99.90;;;;;;5060528;28;20025;-79
2023/03/15 01:33:19;;;;;;;14.45;2.65;;;2.10;99.90;;;;;;5061278;28;20049;-79
2023/03/15 01:35:45;;;;;;;16.48;2.97;;;2.10;99.90;;;;;;5059944;28;20035;-77
2023/03/15 01:38:11;;;;;;;10.00;2.88;;;2.10;99.90;;;;;;5059680;28;20072;-77
2023/03/15 01:40:44;;;;;;;17.00;3.42;;;2.10;99.90;;;;;;5060029;28;20036;-77
2023/03/15 01:43:15;;;;;;;19.63;3.20;;;2.10;99.90;;;;;;5059069;28;20085;-76
2023/03/15 01:46:01;;;;;;;11.82;3.00;;;2.10;99.90;;;;;;5059167;28;20505;-75
2023/03/15 01:48:59;;;;;;;14.60;3.05;;;2.00;99.90;;;;;;5060806;28;20111;-75
2023/03/15 01:51:52;;;;;;;15.95;2.83;;;1.90;99.90;;;;;;5059705;28;20029;-76
2023/03/15 01:54:26;;;;;;;25.77;2.67;;;1.90;99.90;;;;;;5060691;28;20033;-74
2023/03/15 01:57:03;;;;;;;;;;;1.90;99.90;;;;;;5059946;28;20037;-79
2023/03/15 01:59:33;;;;;;;10.27;2.47;;;1.90;99.90;;;;;;5059983;28;19924;-75
2023/03/15 02:02:00;;;;;;;8.85;1.92;;;2.00;99.90;;;;;;5059182;28;20032;-79
2023/03/15 02:04:40;;;;;;;14.23;2.72;;;2.00;99.90;;;;;;5059108;28;20144;-78
2023/03/15 02:07:07;;;;;;;17.50;2.83;;;1.90;99.90;;;;;;5059221;28;20041;-76
2023/03/15 02:10:06;;;;;;;11.25;2.22;;;1.90;99.90;;;;;;5059105;28;20531;-77
2023/03/15 02:12:37;;;;;;;12.70;2.22;;;1.90;99.90;;;;;;5057613;28;20071;-78
2023/03/15 02:15:04;;;;;;;14.10;2.80;;;1.90;99.90;;;;;;5058381;28;20029;-78
2023/03/15 02:17:42;;;;;;;22.30;2.75;;;1.90;99.90;;;;;;5058628;28;20048;-75
2023/03/15 02:20:30;;;;;;;10.27;2.45;;;1.90;99.90;;;;;;5058816;28;20025;-76
2023/03/15 02:23:00;;;;;;;9.55;2.63;;;1.90;99.90;;;;;;5058399;28;20020;-74
2023/03/15 02:25:49;;;;;;;13.23;2.92;;;1.90;99.90;;;;;;5057454;28;20056;-76
2023/03/15 02:28:17;;;;;;;15.52;3.13;;;1.80;99.90;;;;;;5058833;28;20021;-77
2023/03/15 02:30:44;;;;;;;17.73;3.90;;;1.80;99.90;;;;;;5060555;28;20021;-76
2023/03/15 02:33:16;;;;;;;20.63;3.72;;;1.80;99.90;;;;;;5060351;28;20060;-76
2023/03/15 02:35:42;;;;;;;13.98;3.45;;;1.80;99.90;;;;;;5058626;28;20017;-76
2023/03/15 02:38:08;;;;;;;15.45;2.83;;;1.80;99.90;;;;;;5059001;28;20029;-75
2023/03/15 02:40:33;;;;;;;15.90;3.78;;;1.90;99.90;;;;;;5058518;28;20108;-77
2023/03/15 02:43:12;;;;;;;18.75;3.42;;;1.90;99.90;;;;;;5059568;28;20032;-77
2023/03/15 02:45:39;;;;;;;19.40;4.20;;;1.90;99.90;;;;;;5058598;28;20043;-76
2023/03/15 02:48:06;;;;;;;25.20;4.72;;;1.90;99.90;;;;;;5059848;28;20088;-75
2023/03/15 02:50:31;;;;;;;17.83;3.53;;;1.90;99.90;;;;;;5058486;28;20120;-75
2023/03/15 02:52:57;;;;;;;15.10;2.53;;;1.90;99.90;;;;;;5059380;28;20068;-75
2023/03/15 02:55:23;;;;;;;13.70;2.17;;;1.90;99.90;;;;;;5059909;28;20021;-77
2023/03/15 02:57:48;;;;;;;15.55;2.42;;;1.90;99.90;;;;;;5060044;28;20021;-76
2023/03/15 03:00:14;;;;;;;17.02;3.13;;;1.80;99.90;;;;;;5058857;28;20021;-77
2023/03/15 03:02:42;;;;;;;16.10;2.92;;;1.80;99.90;;;;;;5058139;28;20025;-75
2023/03/15 03:05:08;;;;;;;9.95;2.65;;;1.70;99.90;;;;;;5058451;28;20023;-76
2023/03/15 03:07:34;;;;;;;14.40;2.72;;;1.70;99.90;;;;;;5059545;28;20112;-77
2023/03/15 03:10:00;;;;;;;11.85;3.40;;;1.60;99.90;;;;;;5059361;28;20092;-76
2023/03/15 03:12:26;;;;;;;25.27;2.90;;;1.60;99.90;;;;;;5059348;28;20045;-74
2023/03/15 03:14:52;;;;;;;8.95;3.22;;;1.60;99.90;;;;;;5059015;28;20033;-75
2023/03/15 03:17:17;;;;;;;14.18;3.15;;;1.50;99.90;;;;;;5058161;28;20025;-75
2023/03/15 03:19:43;;;;;;;10.70;3.00;;;1.50;99.90;;;;;;5059565;28;20412;-75
2023/03/15 03:22:12;;;;;;;12.27;3.20;;;1.50;99.90;;;;;;5057130;28;20033;-76
2023/03/15 03:24:38;;;;;;;22.95;3.25;;;1.40;99.90;;;;;;5056971;28;20079;-77
2023/03/15 03:27:04;;;;;;;16.92;3.20;;;1.40;99.90;;;;;;5057846;28;20041;-75
2023/03/15 03:29:29;;;;;;;17.00;2.70;;;1.40;99.90;;;;;;5058271;28;20035;-75
2023/03/15 03:31:55;;;;;;;16.65;2.75;;;1.40;99.90;;;;;;5057981;28;20029;-75
2023/03/15 03:34:21;;;;;;;15.02;3.22;;;1.40;99.90;;;;;;5059604;28;20040;-76
2023/03/15 03:36:49;;;;;;;11.18;3.08;;;1.40;99.90;;;;;;5059652;28;20024;-76
2023/03/15 03:39:15;;;;;;;16.33;3.10;;;1.40;99.90;;;;;;5057855;28;20103;-76
2023/03/15 03:41:40;;;;;;;12.48;3.30;;;1.30;99.90;;;;;;5058246;28;20064;-75
2023/03/15 03:44:06;;;;;;;13.15;3.28;;;1.30;99.90;;;;;;5058128;28;20093;-76
2023/03/15 03:46:32;;;;;;;13.73;3.10;;;1.30;99.90;;;;;;5057947;28;20045;-75
2023/03/15 03:48:57;;;;;;;23.98;3.55;;;1.30;99.90;;;;;;5057741;28;20045;-75
2023/03/15 03:51:23;;;;;;;16.10;3.08;;;1.30;99.90;;;;;;5061107;28;20019;-76
2023/03/15 03:53:49;;;;;;;15.75;2.90;;;1.30;99.90;;;;;;5061614;28;20049;-76
2023/03/15 03:56:14;;;;;;;17.77;3.53;;;1.30;99.90;;;;;;5063006;28;20130;-75
2023/03/15 03:58:40;;;;;;;9.85;3.25;;;1.30;99.90;;;;;;5062084;28;20040;-76
2023/03/15 04:01:05;;;;;;;12.50;3.00;;;1.30;99.90;;;;;;5061288;28;20036;-75
2023/03/15 04:03:32;;;;;;;11.93;2.83;;;1.30;99.90;;;;;;5062285;28;20048;-75
2023/03/15 04:05:58;;;;;;;11.10;3.22;;;1.30;99.90;;;;;;5061051;28;20049;-75
2023/03/15 04:08:25;;;;;;;16.85;3.13;;;1.30;99.90;;;;;;5061122;28;20017;-75
2023/03/15 04:10:56;;;;;;;11.98;3.33;;;1.30;99.90;;;;;;5063256;28;20049;-76
2023/03/15 04:13:23;;;;;;;19.08;3.22;;;1.20;99.90;;;;;;5061986;28;20025;-75
2023/03/15 04:15:49;;;;;;;12.23;2.88;;;1.20;99.90;;;;;;5062141;28;20053;-75
2023/03/15 04:18:16;;;;;;;11.55;3.03;;;1.20;99.90;;;;;;5062260;28;20128;-76
2023/03/15 04:20:48;;;;;;;14.85;3.15;;;1.20;99.90;;;;;;5062269;28;20021;-76
2023/03/15 04:23:18;;;;;;;9.35;3.10;;;1.10;99.90;;;;;;5064152;28;20025;-76
2023/03/15 04:25:50;;;;;;;18.48;3.30;;;1.10;99.90;;;;;;5063110;28;20405;-77
2023/03/15 04:28:17;;;;;;;9.88;2.85;;;1.10;99.90;;;;;;5062445;28;20048;-76
2023/03/15 04:30:42;;;;;;;12.45;3.00;;;1.10;99.90;;;;;;5062238;28;20036;-75
2023/03/15 04:33:09;;;;;;;18.85;2.95;;;1.00;99.90;;;;;;5063692;28;20021;-76
2023/03/15 04:35:37;;;;;;;9.80;2.80;;;1.00;99.90;;;;;;5062095;28;20025;-75
2023/03/15 04:38:03;;;;;;;10.77;3.08;;;1.00;99.90;;;;;;5062058;28;20021;-77
2023/03/15 04:40:33;;;;;;;16.58;3.13;;;1.00;99.90;;;;;;5063152;28;20051;-76
2023/03/15 04:43:01;;;;;;;14.68;3.33;;;1.00;99.90;;;;;;5061832;28;20017;-76
2023/03/15 04:45:27;;;;;;;8.65;2.70;;;0.90;99.90;;;;;;5062779;28;20033;-77
2023/03/15 04:47:54;;;;;;;13.65;3.00;;;0.90;99.90;;;;;;5063454;28;20017;-75
2023/03/15 04:50:21;;;;;;;12.63;2.97;;;0.90;99.90;;;;;;5062603;28;20025;-76
2023/03/15 04:52:46;;;;;;;17.92;3.28;;;0.90;99.90;;;;;;5061546;28;20021;-76
2023/03/15 04:55:12;;;;;;;12.50;3.13;;;0.90;99.90;;;;;;5063498;28;20060;-76
2023/03/15 04:57:38;;;;;;;12.25;2.90;;;0.90;99.90;;;;;;5061064;28;20017;-76
2023/03/15 05:00:08;;;;;;;9.23;2.65;;;0.90;99.90;;;;;;5061827;28;20025;-76
2023/03/15 05:02:38;;;;;;;13.85;3.58;;;0.90;99.90;;;;;;5061836;28;20596;-77
2023/03/15 05:05:05;;;;;;;12.63;3.30;;;0.90;99.90;;;;;;5062601;28;20044;-77
2023/03/15 05:07:33;;;;;;;17.13;3.72;;;0.90;99.90;;;;;;5061931;28;20075;-77
2023/03/15 05:09:59;;;;;;;14.77;4.57;;;0.90;99.90;;;;;;5061267;28;20017;-76
2023/03/15 05:12:24;;;;;;;15.73;5.28;;;0.90;99.90;;;;;;5061147;28;20036;-76
2023/03/15 05:14:50;;;;;;;14.85;4.68;;;0.90;99.90;;;;;;5061367;28;20021;-76
2023/03/15 05:17:16;;;;;;;17.13;4.95;;;0.90;99.90;;;;;;5062748;28;20051;-76
2023/03/15 05:19:41;;;;;;;24.80;5.13;;;0.90;99.90;;;;;;5061462;28;20112;-76
2023/03/15 05:22:07;;;;;;;13.98;4.32;;;0.90;99.90;;;;;;5061906;28;20067;-75
2023/03/15 05:24:33;;;;;;;20.83;5.18;;;0.90;99.90;;;;;;5062113;28;20041;-75
2023/03/15 05:26:59;;;;;;;18.17;5.05;;;0.90;99.90;;;;;;5059835;28;20041;-76
2023/03/15 05:29:24;;;;;;;23.38;7.30;;;0.90;99.90;;;;;;5062206;28;20029;-75
2023/03/15 05:31:51;;;;;;;22.05;9.43;;;0.90;99.90;;;;;;5061335;28;20462;-76
2023/03/15 05:34:18;;;;;;;20.58;8.52;;;0.90;99.90;;;;;;5062486;28;20024;-76
2023/03/15 05:36:44;;;;;;;22.90;8.18;;;0.90;99.90;;;;;;5062180;28;20029;-77
2023/03/15 05:39:10;;;;;;;22.08;8.38;;;0.90;99.90;;;;;;5062307;28;20068;-75
2023/03/15 05:41:36;;;;;;;21.55;6.60;;;0.90;99.90;;;;;;5059470;28;20052;-76
2023/03/15 05:44:02;;;;;;;15.98;5.85;;;0.80;99.90;;;;;;5060212;28;20021;-74
2023/03/15 05:46:28;;;;;;;14.65;6.63;;;0.80;99.90;;;;;;5059509;28;20063;-75
2023/03/15 05:48:53;;;;;;;27.73;6.53;;;0.80;99.90;;;;;;5061101;28;20037;-75
2023/03/15 05:51:19;;;;;;;16.25;6.18;;;0.80;99.90;;;;;;5061314;28;20489;-76
2023/03/15 05:53:45;;;;;;;21.52;5.85;;;0.90;99.90;;;;;;5061070;28;20032;-75
2023/03/15 05:56:10;;;;;;;18.92;5.75;;;0.90;99.90;;;;;;5060832;28;20028;-75
2023/03/15 05:58:36;;;;;;;25.63;5.25;;;0.90;99.90;;;;;;5060355;28;20458;-75
2023/03/15 06:01:03;;;;;;;22.67;6.15;;;1.00;99.90;;;;;;5060049;28;20029;-74
2023/03/15 06:03:30;;;;;;;21.17;4.88;;;0.90;99.90;;;;;;5058265;28;20021;-76
2023/03/15 06:05:56;;;;;;;26.33;6.30;;;1.00;99.90;;;;;;5058353;28;20050;-75
2023/03/15 06:08:22;;;;;;;22.88;5.72;;;1.00;99.90;;;;;;5060096;28;20052;-74
2023/03/15 06:10:48;;;;;;;20.30;5.47;;;1.10;99.90;;;;;;5059956;28;20469;-74
2023/03/15 06:13:13;;;;;;;17.75;5.43;;;1.00;99.90;;;;;;5058127;28;20044;-75
2023/03/15 06:15:39;;;;;;;18.77;5.72;;;1.00;99.90;;;;;;5057766;28;20941;-75
2023/03/15 06:18:05;;;;;;;16.02;5.22;;;1.00;99.90;;;;;;5061056;28;20033;-74
2023/03/15 06:20:31;;;;;;;18.77;5.93;;;1.00;99.90;;;;;;5059105;28;20064;-74
2023/03/15 06:22:57;;;;;;;27.00;5.90;;;1.10;99.90;;;;;;5058978;28;20425;-75
2023/03/15 06:25:23;;;;;;;19.23;5.95;;;1.10;99.90;;;;;;5059324;28;20066;-75
2023/03/15 06:27:49;;;;;;;19.17;5.43;;;1.10;99.90;;;;;;5060315;28;20028;-75
2023/03/15 06:30:15;;;;;;;18.30;5.63;;;1.10;99.90;;;;;;5058670;28;20027;-75
2023/03/15 06:32:40;;;;;;;20.38;5.88;;;1.10;99.90;;;;;;5059730;28;20036;-74
2023/03/15 06:35:07;;;;;;;17.77;5.82;;;1.20;99.90;;;;;;5059994;28;20051;-75
2023/03/15 06:37:34;;;;;;;21.95;8.52;;;1.20;99.90;;;;;;5058389;28;20029;-74
2023/03/15 06:40:01;;;;;;;20.63;7.90;;;1.20;99.90;;;;;;5059747;28;20029;-75
2023/03/15 06:42:26;;;;;;;23.30;8.82;;;1.30;99.90;;;;;;5061511;28;20434;-74
2023/03/15 06:44:52;;;;;;;22.10;7.35;;;1.30;99.90;;;;;;5061276;28;20031;-74
2023/03/15 06:47:18;;;;;;;16.60;5.47;;;1.30;99.90;;;;;;5061209;28;20398;-75
2023/03/15 06:49:49;;;;;;;19.90;5.82;;;1.40;99.90;;;;;;5059804;28;20043;-75
2023/03/15 06:52:16;;;;;;;19.27;6.03;;;1.40;99.90;;;;;;5057257;28;20028;-75
2023/03/15 06:54:41;;;;;;;19.27;4.63;;;1.40;99.90;;;;;;5058483;28;20032;-74
2023/03/15 06:57:07;;;;;;;19.73;4.70;;;1.50;99.90;;;;;;5058653;28;20040;-75
2023/03/15 06:59:33;;;;;;;16.38;5.25;;;1.50;99.90;;;;;;5058263;28;20033;-74
2023/03/15 07:01:58;;;;;;;15.48;4.60;;;1.50;99.90;;;;;;5051450;28;20037;-74
2023/03/15 07:04:24;;;;;;;13.68;4.85;;;1.60;99.90;;;;;;5056238;28;20033;-74
2023/03/15 07:06:50;;;;;;;9.98;3.60;;;1.60;99.90;;;;;;5061072;28;20055;-74
2023/03/15 07:09:16;;;;;;;16.27;4.18;;;1.70;99.90;;;;;;5059058;28;20089;-72
2023/03/15 07:11:41;;;;;;;11.73;3.65;;;1.70;99.90;;;;;;5058689;28;20440;-74
2023/03/15 07:14:07;;;;;;;11.50;3.35;;;1.80;99.90;;;;;;5060694;28;20091;-73
2023/03/15 07:16:33;;;;;;;19.05;3.50;;;1.80;99.90;;;;;;5060568;28;20075;-75
2023/03/15 07:18:58;;;;;;;14.43;3.50;;;1.90;99.90;;;;;;5058525;28;20490;-74
2023/03/15 07:21:25;;;;;;;12.10;3.40;;;2.00;99.90;;;;;;5058239;28;20047;-75
2023/03/15 07:23:50;;;;;;;14.00;3.45;;;2.00;99.90;;;;;;5059606;28;20036;-74
2023/03/15 07:26:17;;;;;;;10.05;2.95;;;2.10;99.90;;;;;;5063163;28;20053;-73
2023/03/15 07:28:43;;;;;;;14.50;2.83;;;2.20;99.90;;;;;;5064656;28;20014;-72
2023/03/15 07:31:10;;;;;;;12.20;2.70;;;2.30;99.90;;;;;;5062703;28;20044;-74
2023/03/15 07:33:37;;;;;;;15.90;2.70;;;2.30;99.90;;;;;;5062920;28;20114;-73
2023/03/15 07:36:03;;;;;;;11.60;2.50;;;2.40;99.90;;;;;;5063175;28;20032;-72
2023/03/15 07:38:29;;;;;;;10.50;2.63;;;2.50;99.90;;;;;;5064132;28;20021;-72
2023/03/15 07:40:56;;;;;;;9.35;2.28;;;2.60;99.90;;;;;;5064585;28;20025;-73
2023/03/15 07:43:22;;;;;;;15.18;3.00;;;2.70;99.90;;;;;;5065004;28;20710;-72
2023/03/15 07:45:48;;;;;;;9.35;2.20;;;2.80;99.90;;;;;;5064867;28;20070;-74
2023/03/15 07:48:14;;;;;;;11.38;2.50;;;2.90;99.90;;;;;;5064325;28;20021;-73
2023/03/15 07:50:40;;;;;;;11.43;2.35;;;3.00;99.90;;;;;;5063134;28;20040;-72
2023/03/15 07:53:06;;;;;;;18.48;2.15;;;3.10;99.90;;;;;;5064834;28;20052;-74
2023/03/15 07:55:33;;;;;;;12.55;2.47;;;3.30;99.90;;;;;;5064803;28;20052;-73
2023/03/15 07:57:58;;;;;;;6.65;1.90;;;3.50;99.90;;;;;;5064387;28;20025;-70
2023/03/15 08:00:24;;;;;;;9.98;2.13;;;3.70;99.90;;;;;;5063445;28;20047;-73
2023/03/15 08:02:50;;;;;;;13.73;2.38;;;3.80;99.90;;;;;;5062261;28;20047;-73
2023/03/15 08:05:18;;;;;;;11.40;2.67;;;4.00;99.90;;;;;;5058950;28;20017;-72
2023/03/15 08:07:45;;;;;;;6.72;1.95;;;4.10;99.90;;;;;;5060710;28;20044;-72
2023/03/15 08:10:12;;;;;;;11.77;2.40;;;4.30;99.90;;;;;;5062269;28;20088;-72
2023/03/15 08:12:39;;;;;;;6.60;1.85;;;4.40;99.90;;;;;;5063147;28;20029;-73
2023/03/15 08:15:05;;;;;;;8.23;2.10;;;4.60;99.90;;;;;;5063322;28;20045;-71
2023/03/15 08:17:31;;;;;;;12.18;2.08;;;4.70;99.90;;;;;;5058654;28;20025;-71
2023/03/15 08:19:57;;;;;;;7.45;1.67;;;4.80;99.90;;;;;;5058039;28;20075;-72
2023/03/15 08:22:22;;;;;;;7.43;1.67;;;4.90;99.90;;;;;;5063079;28;20036;-70
2023/03/15 08:24:49;;;;;;;13.25;2.25;;;5.10;99.90;;;;;;5058606;28;20044;-70
2023/03/15 08:27:15;;;;;;;11.02;2.42;;;5.30;99.90;;;;;;5060400;28;20067;-70
2023/03/15 08:29:40;;;;;;;11.25;1.77;;;5.40;99.90;;;;;;5060092;28;20028;-70
2023/03/15 08:32:06;;;;;;;12.70;2.42;;;5.40;99.90;;;;;;5060588;28;20028;-71
2023/03/15 08:34:33;;;;;;;10.18;1.70;;;5.60;99.90;;;;;;5059250;28;20040;-71
2023/03/15 08:37:00;;;;;;;11.90;1.90;;;5.70;99.90;;;;;;5057554;28;20060;-69
2023/03/15 08:39:25;;;;;;;10.95;1.77;;;5.80;99.90;;;;;;5063257;28;20470;-70
2023/03/15 08:41:51;;;;;;;7.35;1.98;;;5.80;99.90;;;;;;5063187;28;20025;-71
2023/03/15 08:44:16;;;;;;;11.07;1.60;;;5.90;99.90;;;;;;5057240;28;20417;-71
2023/03/15 08:46:42;;;;;;;13.68;2.00;;;6.00;99.90;;;;;;5060726;28;20417;-72
2023/03/15 08:49:08;;;;;;;13.05;2.10;;;6.00;99.90;;;;;;5062123;28;20052;-73
2023/03/15 08:51:33;;;;;;;12.95;2.20;;;6.20;99.90;;;;;;5062179;28;20035;-74
2023/03/15 08:54:02;;;;;;;10.63;1.80;;;6.40;99.90;;;;;;5057584;28;20036;-73
2023/03/15 08:56:28;;;;;;;14.15;1.88;;;6.60;99.90;;;;;;5061702;28;20021;-74
2023/03/15 08:58:54;;;;;;;13.05;1.98;;;6.80;99.90;;;;;;5062091;28;20077;-72
2023/03/15 09:01:19;;;;;;;10.95;1.98;;;7.00;99.90;;;;;;5060970;28;20064;-74
2023/03/15 09:03:45;;;;;;;10.77;1.80;;;7.00;99.90;;;;;;5059186;28;20112;-74
2023/03/15 09:06:11;;;;;;;14.93;2.05;;;6.90;99.90;;;;;;5060713;28;20102;-73
2023/03/15 09:08:36;;;;;;;13.27;1.90;;;6.80;99.90;;;;;;5061398;28;20025;-73
2023/03/15 09:11:02;;;;;;;9.68;1.60;;;6.60;99.90;;;;;;5062411;28;20027;-73
2023/03/15 09:13:28;;;;;;;9.35;1.67;;;6.70;99.90;;;;;;5061664;28;20033;-73
2023/03/15 09:15:55;;;;;;;19.17;2.30;;;6.80;99.90;;;;;;5061720;28;20040;-70
2023/03/15 09:18:20;;;;;;;10.90;1.83;;;6.90;99.90;;;;;;5061276;28;20025;-73
2023/03/15 09:20:46;;;;;;;14.68;1.67;;;7.00;99.90;;;;;;5061445;28;20458;-74
2023/03/15 09:23:12;;;;;;;12.07;1.58;;;7.00;99.90;;;;;;5061108;28;20033;-71
2023/03/15 09:25:38;;;;;;;12.98;2.00;;;7.10;99.90;;;;;;5060649;28;20045;-71
2023/03/15 09:28:05;;;;;;;14.88;1.90;;;7.20;99.90;;;;;;5060635;28;20032;-71
2023/03/15 09:30:32;;;;;;;11.57;1.92;;;7.40;99.90;;;;;;5062223;28;20028;-71
2023/03/15 09:32:58;;;;;;;14.35;1.65;;;7.50;99.90;;;;;;5061480;28;20029;-70
2023/03/15 09:35:23;;;;;;;7.90;1.42;;;7.70;99.90;;;;;;5059477;28;20493;-70
2023/03/15 09:37:50;;;;;;;10.52;1.80;;;7.70;99.90;;;;;;5061063;28;20063;-73
2023/03/15 09:40:15;;;;;;;10.68;1.35;;;7.80;99.90;;;;;;5060741;28;20040;-74
2023/03/15 09:42:51;;;;;;;9.60;1.58;;;7.90;99.90;;;;;;5062068;28;20033;-71
2023/03/15 09:45:43;;;;;;;9.73;1.73;;;7.90;99.90;;;;;;5059962;28;20067;-72
2023/03/15 09:48:20;;;;;;;14.32;1.98;;;7.70;99.90;;;;;;5060825;28;20041;-70
2023/03/15 09:50:52;;;;;;;12.60;2.28;;;7.40;99.90;;;;;;5061607;28;20064;-72
2023/03/15 09:53:27;;;;;;;11.80;1.60;;;7.10;99.90;;;;;;5060684;28;20029;-71
2023/03/15 09:55:54;;;;;;;16.85;1.92;;;6.70;99.90;;;;;;5060553;28;20048;-68
2023/03/15 09:58:33;;;;;;;8.98;1.77;;;6.40;99.90;;;;;;5060473;28;20025;-71
2023/03/15 10:01:06;;;;;;;12.10;1.52;;;6.10;99.90;;;;;;5052727;28;20114;-72
2023/03/15 10:03:50;;;;;;;16.53;1.83;;;6.00;99.90;;;;;;5055367;28;20060;-71
2023/03/15 10:06:27;;;;;;;8.88;1.50;;;6.00;99.90;;;;;;5058130;28;20051;-71
2023/03/15 10:08:59;;;;;;;7.63;1.38;;;6.00;99.90;;;;;;5058205;28;20033;-73
2023/03/15 10:11:55;;;;;;;9.15;1.88;;;5.70;99.90;;;;;;5060553;28;20029;-71
2023/03/15 10:14:39;;;;;;;3.75;1.20;;;5.40;99.90;;;;;;5058709;28;20037;-70
2023/03/15 10:17:14;;;;;;;11.23;1.60;;;5.00;99.90;;;;;;5060419;28;20521;-72
2023/03/15 10:19:50;;;;;;;6.22;0.70;;;4.60;99.90;;;;;;5060222;28;20064;-72
2023/03/15 10:22:26;;;;;;;2.80;0.80;;;4.20;99.90;;;;;;5058257;28;20100;-71
2023/03/15 10:25:16;;;;;;;5.10;0.93;;;4.10;99.90;;;;;;5059480;28;20090;-72
2023/03/15 10:28:00;;;;;;;9.10;1.30;;;3.90;99.90;;;;;;5061117;28;20393;-72
2023/03/15 10:30:31;;;;;;;6.23;1.00;;;3.80;99.90;;;;;;5058176;28;20442;-71
2023/03/15 10:33:04;;;;;;;5.70;0.90;;;3.70;99.90;;;;;;5060438;28;20260;-73
2023/03/15 10:35:30;;;;;;;6.05;1.48;;;3.70;99.90;;;;;;5059446;28;20033;-71
2023/03/15 10:37:57;;;;;;;6.88;1.05;;;3.70;99.90;;;;;;5059417;28;20036;-71
2023/03/15 10:40:38;;;;;;;4.95;1.30;;;3.60;99.90;;;;;;5059428;28;20029;-70
2023/03/15 10:43:23;;;;;;;4.10;1.20;;;3.60;99.90;;;;;;5060751;28;20024;-71
2023/03/15 10:46:02;;;;;;;7.65;0.80;;;3.60;99.90;;;;;;5060696;28;20061;-72
2023/03/15 10:48:32;;;;;;;8.50;1.00;;;3.70;99.90;;;;;;5060760;28;20043;-71
2023/03/15 10:51:24;;;;;;;3.42;1.10;;;3.60;99.90;;;;;;5059120;28;20043;-71
2023/03/15 10:54:06;;;;;;;6.13;0.82;;;3.60;99.90;;;;;;5059532;28;20096;-72
2023/03/15 10:56:36;;;;;;;5.30;0.80;;;3.60;99.90;;;;;;5059915;28;20060;-72
2023/03/15 10:59:02;;;;;;;4.15;1.30;;;3.60;99.90;;;;;;5061777;28;20028;-73
2023/03/15 11:01:36;;;;;;;4.80;0.90;;;3.70;99.90;;;;;;5061186;28;20047;-70
2023/03/15 11:04:21;;;;;;;7.10;1.48;;;3.80;99.90;;;;;;5062825;28;20100;-71
2023/03/15 11:06:56;;;;;;;2.38;0.85;;;3.80;99.90;;;;;;5064240;28;20053;-73
2023/03/15 11:09:25;;;;;;;1.75;0.70;;;4.00;99.90;;;;;;5061488;28;20068;-74
2023/03/15 11:12:02;;;;;;;4.55;0.82;;;4.00;99.90;;;;;;5060291;28;20059;-73
2023/03/15 11:14:39;;;;;;;6.18;0.88;;;4.20;99.90;;;;;;5062659;28;20032;-72
2023/03/15 11:17:07;;;;;;;4.95;0.95;;;4.30;99.90;;;;;;5063390;28;20021;-72
2023/03/15 11:19:42;;;;;;;6.57;0.90;;;4.60;99.90;;;;;;5059100;28;20029;-72
2023/03/15 11:22:12;;;;;;;2.25;0.88;;;4.90;99.90;;;;;;5062712;28;20090;-71
2023/03/15 11:24:38;;;;;;;3.45;1.02;;;5.00;99.90;;;;;;5063086;28;20706;-69
2023/03/15 11:27:12;;;;;;;8.20;1.15;;;5.10;99.90;;;;;;5059118;28;20040;-71
2023/03/15 11:29:44;;;;;;;5.15;1.08;;;4.90;99.90;;;;;;5062023;28;20033;-71
2023/03/15 11:32:18;;;;;;;9.35;1.08;;;4.70;99.90;;;;;;5060902;28;20044;-71
2023/03/15 11:35:00;;;;;;;3.30;0.70;;;4.90;99.90;;;;;;5063348;28;20021;-71
2023/03/15 11:37:33;;;;;;;6.50;0.77;;;4.80;99.90;;;;;;5061693;28;20056;-71
2023/03/15 11:40:11;;;;;;;3.58;0.82;;;4.70;99.90;;;;;;5063983;28;20573;-70
2023/03/15 11:42:43;;;;;;;7.88;1.23;;;4.40;99.90;;;;;;5061957;28;20044;-73
2023/03/15 11:45:22;;;;;;;5.95;0.73;;;4.20;99.90;;;;;;5064240;28;20021;-71
2023/03/15 11:47:56;;;;;;;5.93;1.00;;;4.30;99.90;;;;;;5062727;28;20160;-74
2023/03/15 11:50:22;;;;;;;8.52;1.20;;;4.20;99.90;;;;;;5061841;28;20032;-73
2023/03/15 11:52:52;;;;;;;6.95;1.20;;;4.30;99.90;;;;;;5063225;28;20028;-71
2023/03/15 11:55:27;;;;;;;2.78;0.88;;;4.20;99.90;;;;;;5059800;28;20032;-72
2023/03/15 11:57:57;;;;;;;4.22;0.60;;;4.20;99.90;;;;;;5063062;28;20075;-72
2023/03/15 12:00:35;;;;;;;5.78;0.85;;;4.00;99.90;;;;;;5061765;28;20068;-72
2023/03/15 12:03:28;;;;;;;6.18;1.15;;;4.00;99.90;;;;;;5062974;28;20072;-72
2023/03/15 12:06:09;;;;;;;3.72;0.70;;;4.00;99.90;;;;;;5063737;28;20033;-72
2023/03/15 12:08:53;;;;;;;3.20;0.52;;;4.10;99.90;;;;;;5061624;28;20044;-72
2023/03/15 12:11:19;;;;;;;4.47;0.90;;;4.10;99.90;;;;;;5066887;28;20041;-73
2023/03/15 12:13:50;;;;;;;5.82;1.05;;;4.10;99.90;;;;;;5062985;28;20053;-75
2023/03/15 12:16:20;;;;;;;4.10;0.60;;;4.20;99.90;;;;;;5061352;28;20111;-73
2023/03/15 12:18:45;;;;;;;5.38;1.00;;;4.50;99.90;;;;;;5062206;28;20031;-73
2023/03/15 12:21:20;;;;;;;3.17;0.50;;;4.70;99.90;;;;;;5061684;28;20092;-73
2023/03/15 12:24:00;;;;;;;2.15;0.45;;;5.00;99.90;;;;;;5060680;28;20439;-74
2023/03/15 12:26:42;;;;;;;3.80;1.05;;;5.20;99.90;;;;;;5062589;28;20049;-73
2023/03/15 12:29:14;;;;;;;5.05;0.93;;;5.80;99.90;;;;;;5058943;28;20033;-73
2023/03/15 12:31:54;;;;;;;3.90;0.57;;;6.70;99.90;;;;;;5059561;28;20029;-73
2023/03/15 12:34:29;;;;;;;2.33;0.73;;;7.60;99.90;;;;;;5060511;28;20079;-74
2023/03/15 12:36:59;;;;;;;6.45;0.93;;;8.30;99.90;;;;;;5062106;28;20029;-70
2023/03/15 12:40:23;;;;;;;2.13;0.60;;;8.90;99.90;;;;;;5059093;28;20043;-72
2023/03/15 12:42:48;;;;;;;5.20;0.95;;;9.50;99.90;;;;;;5055116;28;20102;-73
2023/03/15 12:45:14;;;;;;;3.90;0.90;;;9.60;99.90;;;;;;5060901;28;20032;-72
2023/03/15 12:47:49;;;;;;;3.97;0.90;;;9.90;99.90;;;;;;5062556;28;20037;-73
2023/03/15 12:50:43;;;;;;;7.57;1.42;;;10.00;99.90;;;;;;5059336;28;20033;-73
2023/03/15 12:53:30;;;;;;;5.88;1.67;;;10.50;99.90;;;;;;5062537;28;20032;-72
2023/03/15 12:56:10;;;;;;;4.80;1.38;;;11.20;99.90;;;;;;5061294;28;20031;-72
2023/03/15 12:58:38;;;;;;;5.53;1.25;;;11.50;99.90;;;;;;5062726;28;20040;-71
2023/03/15 13:01:06;;;;;;;5.32;1.00;;;11.70;99.90;;;;;;5062431;28;20371;-71